sensor_id;sensor_type;location;lat;lon;timestamp;P1;durP1;ratioP1;P2;durP2;ratioP2
13927;SDS011;7036;50.834;4.718;2022-08-19T00:01:32;3.87;;;3.57;;
13927;SDS011;7036;50.834;4.718;2022-08-19T00:03:59;3.50;;;3.20;;
13927;SDS011;7036;50.834;4.718;2022-08-19T00:06:29;3.80;;;3.50;;
13927;SDS011;7036;50.834;4.718;2022-08-19T00:08:53;3.87;;;3.37;;
13927;SDS011;7036;50.834;4.718;2022-08-19T00:11:20;5.13;;;3.93;;
13927;SDS011;7036;50.834;4.718;2022-08-19T00:13:48;4.30;;;3.63;;
13927;SDS011;7036;50.834;4.718;2022-08-19T00:16:14;3.67;;;3.37;;
13927;SDS011;7036;50.834;4.718;2022-08-19T00:18:41;4.10;;;3.70;;
13927;SDS011;7036;50.834;4.718;2022-08-19T00:21:08;3.97;;;3.67;;
13927;SDS011;7036;50.834;4.718;2022-08-19T00:23:35;3.80;;;3.43;;
13927;SDS011;7036;50.834;4.718;2022-08-19T00:26:05;3.87;;;3.57;;
13927;SDS011;7036;50.834;4.718;2022-08-19T00:28:32;3.87;;;3.57;;
13927;SDS011;7036;50.834;4.718;2022-08-19T00:30:59;7.73;;;3.80;;
13927;SDS011;7036;50.834;4.718;2022-08-19T00:33:25;3.50;;;3.27;;
13927;SDS011;7036;50.834;4.718;2022-08-19T00:35:52;4.67;;;4.27;;
13927;SDS011;7036;50.834;4.718;2022-08-19T00:38:19;3.90;;;3.53;;
13927;SDS011;7036;50.834;4.718;2022-08-19T00:40:46;3.50;;;3.20;;
13927;SDS011;7036;50.834;4.718;2022-08-19T00:43:13;3.57;;;3.37;;
13927;SDS011;7036;50.834;4.718;2022-08-19T00:45:40;4.30;;;3.93;;
13927;SDS011;7036;50.834;4.718;2022-08-19T00:48:10;3.87;;;3.57;;
13927;SDS011;7036;50.834;4.718;2022-08-19T00:50:36;3.83;;;3.53;;
13927;SDS011;7036;50.834;4.718;2022-08-19T00:53:03;4.03;;;3.63;;
13927;SDS011;7036;50.834;4.718;2022-08-19T00:55:30;4.07;;;3.70;;
13927;SDS011;7036;50.834;4.718;2022-08-19T00:58:07;3.47;;;3.17;;
13927;SDS011;7036;50.834;4.718;2022-08-19T01:00:25;3.93;;;3.63;;
13927;SDS011;7036;50.834;4.718;2022-08-19T01:02:51;4.17;;;3.50;;
13927;SDS011;7036;50.834;4.718;2022-08-19T01:05:20;4.10;;;3.63;;
13927;SDS011;7036;50.834;4.718;2022-08-19T01:07:45;3.50;;;3.30;;
13927;SDS011;7036;50.834;4.718;2022-08-19T01:10:13;4.30;;;3.90;;
13927;SDS011;7036;50.834;4.718;2022-08-19T01:12:39;5.83;;;3.43;;
13927;SDS011;7036;50.834;4.718;2022-08-19T01:15:07;4.17;;;3.77;;
13927;SDS011;7036;50.834;4.718;2022-08-19T01:17:33;4.73;;;4.33;;
13927;SDS011;7036;50.834;4.718;2022-08-19T01:20:00;5.37;;;3.40;;
13927;SDS011;7036;50.834;4.718;2022-08-19T01:22:31;3.43;;;3.23;;
13927;SDS011;7036;50.834;4.718;2022-08-19T01:24:58;3.43;;;3.23;;
13927;SDS011;7036;50.834;4.718;2022-08-19T01:27:25;4.40;;;4.00;;
13927;SDS011;7036;50.834;4.718;2022-08-19T01:29:52;4.07;;;3.77;;
13927;SDS011;7036;50.834;4.718;2022-08-19T01:32:20;4.17;;;3.80;;
13927;SDS011;7036;50.834;4.718;2022-08-19T01:34:46;5.03;;;4.00;;
13927;SDS011;7036;50.834;4.718;2022-08-19T01:37:14;3.93;;;3.60;;
13927;SDS011;7036;50.834;4.718;2022-08-19T01:39:41;4.57;;;4.23;;
13927;SDS011;7036;50.834;4.718;2022-08-19T01:42:08;4.23;;;3.83;;
13927;SDS011;7036;50.834;4.718;2022-08-19T01:44:34;4.20;;;3.80;;
13927;SDS011;7036;50.834;4.718;2022-08-19T01:47:01;5.30;;;3.93;;
13927;SDS011;7036;50.834;4.718;2022-08-19T01:49:28;4.57;;;4.17;;
13927;SDS011;7036;50.834;4.718;2022-08-19T01:51:56;4.60;;;4.20;;
13927;SDS011;7036;50.834;4.718;2022-08-19T01:54:23;4.40;;;4.00;;
13927;SDS011;7036;50.834;4.718;2022-08-19T01:56:50;4.47;;;4.17;;
13927;SDS011;7036;50.834;4.718;2022-08-19T01:59:20;4.10;;;3.80;;
13927;SDS011;7036;50.834;4.718;2022-08-19T02:01:47;4.30;;;3.90;;
13927;SDS011;7036;50.834;4.718;2022-08-19T02:04:15;4.57;;;4.17;;
13927;SDS011;7036;50.834;4.718;2022-08-19T02:06:41;4.10;;;3.70;;
13927;SDS011;7036;50.834;4.718;2022-08-19T02:09:08;4.50;;;4.10;;
13927;SDS011;7036;50.834;4.718;2022-08-19T02:11:36;4.63;;;4.23;;
13927;SDS011;7036;50.834;4.718;2022-08-19T02:14:03;5.83;;;4.43;;
13927;SDS011;7036;50.834;4.718;2022-08-19T02:16:30;4.67;;;4.30;;
13927;SDS011;7036;50.834;4.718;2022-08-19T02:18:56;4.20;;;3.80;;
13927;SDS011;7036;50.834;4.718;2022-08-19T02:21:23;4.90;;;4.50;;
13927;SDS011;7036;50.834;4.718;2022-08-19T02:23:50;4.77;;;4.47;;
13927;SDS011;7036;50.834;4.718;2022-08-19T02:26:18;4.43;;;4.03;;
13927;SDS011;7036;50.834;4.718;2022-08-19T02:28:45;4.57;;;4.17;;
13927;SDS011;7036;50.834;4.718;2022-08-19T02:31:12;4.70;;;4.37;;
13927;SDS011;7036;50.834;4.718;2022-08-19T02:33:38;5.00;;;4.50;;
13927;SDS011;7036;50.834;4.718;2022-08-19T02:36:06;4.60;;;4.20;;
13927;SDS011;7036;50.834;4.718;2022-08-19T02:38:33;4.13;;;3.83;;
13927;SDS011;7036;50.834;4.718;2022-08-19T02:41:00;5.37;;;4.20;;
13927;SDS011;7036;50.834;4.718;2022-08-19T02:43:27;4.27;;;3.73;;
13927;SDS011;7036;50.834;4.718;2022-08-19T02:45:53;5.03;;;4.63;;
13927;SDS011;7036;50.834;4.718;2022-08-19T02:48:21;5.03;;;4.57;;
13927;SDS011;7036;50.834;4.718;2022-08-19T02:50:48;6.27;;;4.53;;
13927;SDS011;7036;50.834;4.718;2022-08-19T02:53:14;5.20;;;4.70;;
13927;SDS011;7036;50.834;4.718;2022-08-19T02:55:45;5.97;;;4.70;;
13927;SDS011;7036;50.834;4.718;2022-08-19T02:58:14;4.70;;;4.30;;
13927;SDS011;7036;50.834;4.718;2022-08-19T03:00:44;4.97;;;4.57;;
13927;SDS011;7036;50.834;4.718;2022-08-19T03:03:09;4.63;;;4.30;;
13927;SDS011;7036;50.834;4.718;2022-08-19T03:05:36;5.87;;;4.90;;
13927;SDS011;7036;50.834;4.718;2022-08-19T03:08:04;5.43;;;4.90;;
13927;SDS011;7036;50.834;4.718;2022-08-19T03:10:31;4.67;;;4.27;;
13927;SDS011;7036;50.834;4.718;2022-08-19T03:12:58;4.87;;;4.40;;
13927;SDS011;7036;50.834;4.718;2022-08-19T03:15:25;6.57;;;5.13;;
13927;SDS011;7036;50.834;4.718;2022-08-19T03:17:51;4.73;;;4.33;;
13927;SDS011;7036;50.834;4.718;2022-08-19T03:20:18;5.43;;;4.43;;
13927;SDS011;7036;50.834;4.718;2022-08-19T03:22:45;4.83;;;4.43;;
13927;SDS011;7036;50.834;4.718;2022-08-19T03:25:12;4.87;;;4.27;;
13927;SDS011;7036;50.834;4.718;2022-08-19T03:27:39;4.77;;;4.37;;
13927;SDS011;7036;50.834;4.718;2022-08-19T03:30:06;5.60;;;4.83;;
13927;SDS011;7036;50.834;4.718;2022-08-19T03:32:33;5.07;;;4.63;;
13927;SDS011;7036;50.834;4.718;2022-08-19T03:35:00;4.90;;;4.50;;
13927;SDS011;7036;50.834;4.718;2022-08-19T03:37:27;4.73;;;4.33;;
13927;SDS011;7036;50.834;4.718;2022-08-19T03:39:54;4.63;;;4.20;;
13927;SDS011;7036;50.834;4.718;2022-08-19T03:42:21;4.83;;;4.43;;
13927;SDS011;7036;50.834;4.718;2022-08-19T03:44:49;5.70;;;4.67;;
13927;SDS011;7036;50.834;4.718;2022-08-19T03:47:15;4.80;;;4.37;;
13927;SDS011;7036;50.834;4.718;2022-08-19T03:49:42;4.77;;;4.37;;
13927;SDS011;7036;50.834;4.718;2022-08-19T03:52:09;5.40;;;4.00;;
13927;SDS011;7036;50.834;4.718;2022-08-19T03:54:36;4.73;;;4.33;;
13927;SDS011;7036;50.834;4.718;2022-08-19T03:57:03;5.63;;;4.63;;
13927;SDS011;7036;50.834;4.718;2022-08-19T03:59:31;5.50;;;4.90;;
13927;SDS011;7036;50.834;4.718;2022-08-19T04:01:58;4.93;;;4.53;;
13927;SDS011;7036;50.834;4.718;2022-08-19T04:04:24;4.07;;;3.70;;
13927;SDS011;7036;50.834;4.718;2022-08-19T04:06:51;5.00;;;4.60;;
13927;SDS011;7036;50.834;4.718;2022-08-19T04:09:18;5.30;;;4.80;;
13927;SDS011;7036;50.834;4.718;2022-08-19T04:11:51;5.00;;;4.50;;
13927;SDS011;7036;50.834;4.718;2022-08-19T04:14:15;5.07;;;4.57;;
13927;SDS011;7036;50.834;4.718;2022-08-19T04:16:41;5.13;;;4.63;;
13927;SDS011;7036;50.834;4.718;2022-08-19T04:19:08;5.90;;;4.53;;
13927;SDS011;7036;50.834;4.718;2022-08-19T04:21:35;4.83;;;4.43;;
13927;SDS011;7036;50.834;4.718;2022-08-19T04:24:02;5.30;;;4.80;;
13927;SDS011;7036;50.834;4.718;2022-08-19T04:26:31;5.27;;;4.70;;
13927;SDS011;7036;50.834;4.718;2022-08-19T04:28:56;4.67;;;4.27;;
13927;SDS011;7036;50.834;4.718;2022-08-19T04:31:24;4.00;;;3.70;;
13927;SDS011;7036;50.834;4.718;2022-08-19T04:33:56;5.07;;;4.43;;
13927;SDS011;7036;50.834;4.718;2022-08-19T04:36:21;5.13;;;4.73;;
13927;SDS011;7036;50.834;4.718;2022-08-19T04:38:47;4.60;;;4.10;;
13927;SDS011;7036;50.834;4.718;2022-08-19T04:41:14;4.97;;;4.47;;
13927;SDS011;7036;50.834;4.718;2022-08-19T04:43:59;4.90;;;4.50;;
13927;SDS011;7036;50.834;4.718;2022-08-19T04:46:26;4.63;;;4.13;;
13927;SDS011;7036;50.834;4.718;2022-08-19T04:48:53;5.90;;;4.50;;
13927;SDS011;7036;50.834;4.718;2022-08-19T04:51:20;4.30;;;4.00;;
13927;SDS011;7036;50.834;4.718;2022-08-19T04:53:47;5.33;;;4.83;;
13927;SDS011;7036;50.834;4.718;2022-08-19T04:56:16;4.93;;;4.33;;
13927;SDS011;7036;50.834;4.718;2022-08-19T04:58:41;4.77;;;4.37;;
13927;SDS011;7036;50.834;4.718;2022-08-19T05:01:08;5.23;;;4.83;;
13927;SDS011;7036;50.834;4.718;2022-08-19T05:03:34;5.17;;;4.67;;
13927;SDS011;7036;50.834;4.718;2022-08-19T05:06:08;5.53;;;5.03;;
13927;SDS011;7036;50.834;4.718;2022-08-19T05:08:35;4.27;;;3.87;;
13927;SDS011;7036;50.834;4.718;2022-08-19T05:11:09;4.87;;;4.47;;
13927;SDS011;7036;50.834;4.718;2022-08-19T05:13:28;5.60;;;4.73;;
13927;SDS011;7036;50.834;4.718;2022-08-19T05:15:56;5.10;;;4.63;;
13927;SDS011;7036;50.834;4.718;2022-08-19T05:18:23;10.07;;;7.57;;
13927;SDS011;7036;50.834;4.718;2022-08-19T05:21:09;12.33;;;9.03;;
13927;SDS011;7036;50.834;4.718;2022-08-19T05:23:53;7.10;;;6.40;;
13927;SDS011;7036;50.834;4.718;2022-08-19T05:26:21;9.23;;;8.33;;
13927;SDS011;7036;50.834;4.718;2022-08-19T05:28:48;9.30;;;8.37;;
13927;SDS011;7036;50.834;4.718;2022-08-19T05:31:14;10.07;;;8.47;;
13927;SDS011;7036;50.834;4.718;2022-08-19T05:33:41;9.03;;;7.90;;
13927;SDS011;7036;50.834;4.718;2022-08-19T05:36:08;10.87;;;8.43;;
13927;SDS011;7036;50.834;4.718;2022-08-19T05:38:35;9.53;;;8.17;;
13927;SDS011;7036;50.834;4.718;2022-08-19T05:41:06;10.53;;;8.17;;
13927;SDS011;7036;50.834;4.718;2022-08-19T05:43:35;9.10;;;7.47;;
13927;SDS011;7036;50.834;4.718;2022-08-19T05:46:02;12.10;;;9.80;;
13927;SDS011;7036;50.834;4.718;2022-08-19T05:48:29;12.63;;;8.70;;
13927;SDS011;7036;50.834;4.718;2022-08-19T05:50:56;12.27;;;8.83;;
13927;SDS011;7036;50.834;4.718;2022-08-19T05:53:23;8.53;;;7.70;;
13927;SDS011;7036;50.834;4.718;2022-08-19T05:55:50;12.97;;;7.67;;
13927;SDS011;7036;50.834;4.718;2022-08-19T05:58:17;10.60;;;7.70;;
13927;SDS011;7036;50.834;4.718;2022-08-19T06:00:44;10.87;;;8.63;;
13927;SDS011;7036;50.834;4.718;2022-08-19T06:03:10;13.40;;;9.03;;
13927;SDS011;7036;50.834;4.718;2022-08-19T06:08:07;12.97;;;10.50;;
13927;SDS011;7036;50.834;4.718;2022-08-19T06:10:34;13.37;;;9.20;;
13927;SDS011;7036;50.834;4.718;2022-08-19T06:13:01;13.33;;;9.03;;
13927;SDS011;7036;50.834;4.718;2022-08-19T06:15:28;18.03;;;9.23;;
13927;SDS011;7036;50.834;4.718;2022-08-19T06:17:55;8.77;;;7.87;;
13927;SDS011;7036;50.834;4.718;2022-08-19T06:20:22;10.07;;;7.67;;
13927;SDS011;7036;50.834;4.718;2022-08-19T06:22:49;11.17;;;7.70;;
13927;SDS011;7036;50.834;4.718;2022-08-19T06:25:16;11.33;;;7.33;;
13927;SDS011;7036;50.834;4.718;2022-08-19T06:27:43;10.07;;;6.77;;
13927;SDS011;7036;50.834;4.718;2022-08-19T06:30:10;10.70;;;8.20;;
13927;SDS011;7036;50.834;4.718;2022-08-19T06:32:37;10.97;;;8.87;;
13927;SDS011;7036;50.834;4.718;2022-08-19T06:35:04;10.03;;;7.60;;
13927;SDS011;7036;50.834;4.718;2022-08-19T06:37:30;11.53;;;8.43;;
13927;SDS011;7036;50.834;4.718;2022-08-19T06:39:57;10.00;;;7.07;;
13927;SDS011;7036;50.834;4.718;2022-08-19T06:42:24;9.23;;;6.60;;
13927;SDS011;7036;50.834;4.718;2022-08-19T06:44:51;12.30;;;6.87;;
13927;SDS011;7036;50.834;4.718;2022-08-19T06:47:19;7.47;;;6.47;;
13927;SDS011;7036;50.834;4.718;2022-08-19T06:49:45;10.30;;;7.47;;
13927;SDS011;7036;50.834;4.718;2022-08-19T06:52:12;7.57;;;6.87;;
13927;SDS011;7036;50.834;4.718;2022-08-19T06:54:39;7.57;;;6.40;;
13927;SDS011;7036;50.834;4.718;2022-08-19T06:57:08;11.40;;;6.93;;
13927;SDS011;7036;50.834;4.718;2022-08-19T06:59:35;7.03;;;5.87;;
13927;SDS011;7036;50.834;4.718;2022-08-19T07:02:03;7.73;;;5.83;;
13927;SDS011;7036;50.834;4.718;2022-08-19T07:04:30;11.33;;;6.03;;
13927;SDS011;7036;50.834;4.718;2022-08-19T07:07:00;11.73;;;7.23;;
13927;SDS011;7036;50.834;4.718;2022-08-19T07:09:25;6.50;;;5.20;;
13927;SDS011;7036;50.834;4.718;2022-08-19T07:11:53;7.73;;;5.80;;
13927;SDS011;7036;50.834;4.718;2022-08-19T07:14:22;12.07;;;5.30;;
13927;SDS011;7036;50.834;4.718;2022-08-19T07:16:47;10.03;;;5.67;;
13927;SDS011;7036;50.834;4.718;2022-08-19T07:19:13;8.27;;;5.60;;
13927;SDS011;7036;50.834;4.718;2022-08-19T07:21:40;6.30;;;5.30;;
13927;SDS011;7036;50.834;4.718;2022-08-19T07:24:07;7.63;;;5.63;;
13927;SDS011;7036;50.834;4.718;2022-08-19T07:26:37;7.10;;;5.30;;
13927;SDS011;7036;50.834;4.718;2022-08-19T07:29:01;10.20;;;5.57;;
13927;SDS011;7036;50.834;4.718;2022-08-19T07:31:28;7.40;;;4.53;;
13927;SDS011;7036;50.834;4.718;2022-08-19T07:33:55;8.93;;;5.47;;
13927;SDS011;7036;50.834;4.718;2022-08-19T07:36:23;7.73;;;5.00;;
13927;SDS011;7036;50.834;4.718;2022-08-19T07:38:49;6.70;;;5.30;;
13927;SDS011;7036;50.834;4.718;2022-08-19T07:41:17;9.37;;;4.80;;
13927;SDS011;7036;50.834;4.718;2022-08-19T07:43:43;5.27;;;4.77;;
13927;SDS011;7036;50.834;4.718;2022-08-19T07:46:10;5.50;;;4.63;;
13927;SDS011;7036;50.834;4.718;2022-08-19T07:48:37;10.40;;;4.37;;
13927;SDS011;7036;50.834;4.718;2022-08-19T07:51:04;6.33;;;4.17;;
13927;SDS011;7036;50.834;4.718;2022-08-19T07:53:35;7.00;;;4.20;;
13927;SDS011;7036;50.834;4.718;2022-08-19T07:55:58;6.63;;;4.53;;
13927;SDS011;7036;50.834;4.718;2022-08-19T07:58:25;17.13;;;5.00;;
13927;SDS011;7036;50.834;4.718;2022-08-19T08:00:52;10.53;;;4.23;;
13927;SDS011;7036;50.834;4.718;2022-08-19T08:03:19;5.57;;;3.83;;
13927;SDS011;7036;50.834;4.718;2022-08-19T08:05:46;13.67;;;4.63;;
13927;SDS011;7036;50.834;4.718;2022-08-19T08:08:31;10.57;;;3.87;;
13927;SDS011;7036;50.834;4.718;2022-08-19T08:11:17;8.40;;;3.37;;
13927;SDS011;7036;50.834;4.718;2022-08-19T08:13:43;9.67;;;4.00;;
13927;SDS011;7036;50.834;4.718;2022-08-19T08:16:10;5.37;;;3.80;;
13927;SDS011;7036;50.834;4.718;2022-08-19T08:18:37;6.77;;;3.80;;
13927;SDS011;7036;50.834;4.718;2022-08-19T08:21:04;6.17;;;3.77;;
13927;SDS011;7036;50.834;4.718;2022-08-19T08:23:31;9.37;;;3.60;;
13927;SDS011;7036;50.834;4.718;2022-08-19T08:25:58;19.43;;;5.73;;
13927;SDS011;7036;50.834;4.718;2022-08-19T08:28:25;15.80;;;3.80;;
13927;SDS011;7036;50.834;4.718;2022-08-19T08:30:52;9.70;;;3.73;;
13927;SDS011;7036;50.834;4.718;2022-08-19T08:33:20;6.00;;;3.20;;
13927;SDS011;7036;50.834;4.718;2022-08-19T08:35:46;21.50;;;4.97;;
13927;SDS011;7036;50.834;4.718;2022-08-19T08:38:13;6.20;;;3.30;;
13927;SDS011;7036;50.834;4.718;2022-08-19T08:40:47;6.57;;;3.20;;
13927;SDS011;7036;50.834;4.718;2022-08-19T08:46:00;16.23;;;3.60;;
13927;SDS011;7036;50.834;4.718;2022-08-19T08:48:30;5.93;;;2.50;;
13927;SDS011;7036;50.834;4.718;2022-08-19T08:51:03;14.23;;;4.07;;
13927;SDS011;7036;50.834;4.718;2022-08-19T08:53:30;18.33;;;4.73;;
13927;SDS011;7036;50.834;4.718;2022-08-19T08:55:58;16.30;;;3.53;;
13927;SDS011;7036;50.834;4.718;2022-08-19T08:58:29;7.50;;;3.17;;
13927;SDS011;7036;50.834;4.718;2022-08-19T09:00:55;6.53;;;3.70;;
13927;SDS011;7036;50.834;4.718;2022-08-19T09:03:24;10.73;;;3.43;;
13927;SDS011;7036;50.834;4.718;2022-08-19T09:05:59;10.80;;;3.60;;
13927;SDS011;7036;50.834;4.718;2022-08-19T09:08:34;4.87;;;3.13;;
13927;SDS011;7036;50.834;4.718;2022-08-19T09:11:55;5.67;;;3.20;;
13927;SDS011;7036;50.834;4.718;2022-08-19T09:16:57;4.77;;;2.83;;
13927;SDS011;7036;50.834;4.718;2022-08-19T09:19:23;9.13;;;2.93;;
13927;SDS011;7036;50.834;4.718;2022-08-19T09:21:50;3.77;;;2.93;;
13927;SDS011;7036;50.834;4.718;2022-08-19T09:24:17;3.63;;;2.70;;
13927;SDS011;7036;50.834;4.718;2022-08-19T09:26:44;5.20;;;2.87;;
13927;SDS011;7036;50.834;4.718;2022-08-19T09:29:12;3.90;;;3.30;;
13927;SDS011;7036;50.834;4.718;2022-08-19T09:31:38;4.33;;;2.67;;
13927;SDS011;7036;50.834;4.718;2022-08-19T09:34:05;7.97;;;2.70;;
13927;SDS011;7036;50.834;4.718;2022-08-19T09:36:32;7.47;;;2.83;;
13927;SDS011;7036;50.834;4.718;2022-08-19T09:38:59;8.10;;;3.10;;
13927;SDS011;7036;50.834;4.718;2022-08-19T09:41:26;3.20;;;2.70;;
13927;SDS011;7036;50.834;4.718;2022-08-19T09:43:53;5.47;;;2.63;;
13927;SDS011;7036;50.834;4.718;2022-08-19T09:46:20;3.77;;;2.37;;
13927;SDS011;7036;50.834;4.718;2022-08-19T09:48:49;4.60;;;2.73;;
13927;SDS011;7036;50.834;4.718;2022-08-19T09:51:18;5.53;;;2.63;;
13927;SDS011;7036;50.834;4.718;2022-08-19T09:53:44;6.43;;;2.73;;
13927;SDS011;7036;50.834;4.718;2022-08-19T09:56:10;9.37;;;3.17;;
13927;SDS011;7036;50.834;4.718;2022-08-19T09:58:38;12.50;;;2.83;;
13927;SDS011;7036;50.834;4.718;2022-08-19T10:01:05;5.07;;;2.00;;
13927;SDS011;7036;50.834;4.718;2022-08-19T10:03:32;6.57;;;2.90;;
13927;SDS011;7036;50.834;4.718;2022-08-19T10:06:02;5.50;;;3.03;;
13927;SDS011;7036;50.834;4.718;2022-08-19T10:08:27;20.23;;;4.13;;
13927;SDS011;7036;50.834;4.718;2022-08-19T10:10:52;5.50;;;2.77;;
13927;SDS011;7036;50.834;4.718;2022-08-19T10:13:20;9.87;;;3.03;;
13927;SDS011;7036;50.834;4.718;2022-08-19T10:15:49;3.53;;;1.83;;
13927;SDS011;7036;50.834;4.718;2022-08-19T10:18:19;8.47;;;2.80;;
13927;SDS011;7036;50.834;4.718;2022-08-19T10:20:45;3.90;;;2.20;;
13927;SDS011;7036;50.834;4.718;2022-08-19T10:23:12;10.63;;;2.93;;
13927;SDS011;7036;50.834;4.718;2022-08-19T10:25:39;3.43;;;2.30;;
13927;SDS011;7036;50.834;4.718;2022-08-19T10:28:06;5.17;;;2.23;;
13927;SDS011;7036;50.834;4.718;2022-08-19T10:30:33;8.63;;;2.27;;
13927;SDS011;7036;50.834;4.718;2022-08-19T10:33:00;5.97;;;2.40;;
13927;SDS011;7036;50.834;4.718;2022-08-19T10:35:27;12.07;;;2.50;;
13927;SDS011;7036;50.834;4.718;2022-08-19T10:37:53;7.27;;;2.63;;
13927;SDS011;7036;50.834;4.718;2022-08-19T10:40:20;5.77;;;2.40;;
13927;SDS011;7036;50.834;4.718;2022-08-19T10:42:47;3.13;;;2.20;;
13927;SDS011;7036;50.834;4.718;2022-08-19T10:45:14;4.57;;;2.20;;
13927;SDS011;7036;50.834;4.718;2022-08-19T10:47:41;6.17;;;2.40;;
13927;SDS011;7036;50.834;4.718;2022-08-19T10:50:08;6.27;;;2.70;;
13927;SDS011;7036;50.834;4.718;2022-08-19T10:52:53;6.40;;;2.03;;
13927;SDS011;7036;50.834;4.718;2022-08-19T10:55:21;2.77;;;2.07;;
13927;SDS011;7036;50.834;4.718;2022-08-19T10:58:15;9.57;;;2.30;;
13927;SDS011;7036;50.834;4.718;2022-08-19T11:00:37;6.03;;;2.40;;
13927;SDS011;7036;50.834;4.718;2022-08-19T11:03:04;4.87;;;2.40;;
13927;SDS011;7036;50.834;4.718;2022-08-19T11:05:31;3.10;;;2.10;;
13927;SDS011;7036;50.834;4.718;2022-08-19T11:07:58;5.37;;;2.33;;
13927;SDS011;7036;50.834;4.718;2022-08-19T11:10:25;4.87;;;2.40;;
13927;SDS011;7036;50.834;4.718;2022-08-19T11:12:52;8.40;;;2.90;;
13927;SDS011;7036;50.834;4.718;2022-08-19T11:15:19;4.30;;;2.93;;
13927;SDS011;7036;50.834;4.718;2022-08-19T11:17:46;3.97;;;2.47;;
13927;SDS011;7036;50.834;4.718;2022-08-19T11:20:13;7.47;;;3.60;;
13927;SDS011;7036;50.834;4.718;2022-08-19T11:22:40;8.47;;;2.70;;
13927;SDS011;7036;50.834;4.718;2022-08-19T11:25:07;4.50;;;2.40;;
13927;SDS011;7036;50.834;4.718;2022-08-19T11:27:33;10.23;;;2.07;;
13927;SDS011;7036;50.834;4.718;2022-08-19T11:30:00;3.30;;;2.27;;
13927;SDS011;7036;50.834;4.718;2022-08-19T11:32:27;4.37;;;2.40;;
13927;SDS011;7036;50.834;4.718;2022-08-19T11:34:54;2.93;;;2.50;;
13927;SDS011;7036;50.834;4.718;2022-08-19T11:37:21;2.80;;;2.00;;
13927;SDS011;7036;50.834;4.718;2022-08-19T11:39:48;3.60;;;1.87;;
13927;SDS011;7036;50.834;4.718;2022-08-19T11:42:17;4.00;;;2.30;;
13927;SDS011;7036;50.834;4.718;2022-08-19T11:44:47;2.17;;;1.97;;
13927;SDS011;7036;50.834;4.718;2022-08-19T11:47:14;3.53;;;2.07;;
13927;SDS011;7036;50.834;4.718;2022-08-19T11:49:41;2.27;;;1.90;;
13927;SDS011;7036;50.834;4.718;2022-08-19T11:52:08;2.13;;;2.03;;
13927;SDS011;7036;50.834;4.718;2022-08-19T11:54:35;3.07;;;2.23;;
13927;SDS011;7036;50.834;4.718;2022-08-19T11:57:03;3.10;;;2.10;;
13927;SDS011;7036;50.834;4.718;2022-08-19T11:59:29;2.60;;;2.30;;
13927;SDS011;7036;50.834;4.718;2022-08-19T12:01:56;2.30;;;2.10;;
13927;SDS011;7036;50.834;4.718;2022-08-19T12:04:23;2.43;;;1.87;;
13927;SDS011;7036;50.834;4.718;2022-08-19T12:06:50;2.33;;;1.97;;
13927;SDS011;7036;50.834;4.718;2022-08-19T12:09:17;2.30;;;2.10;;
13927;SDS011;7036;50.834;4.718;2022-08-19T12:11:44;2.93;;;2.57;;
13927;SDS011;7036;50.834;4.718;2022-08-19T12:14:11;2.30;;;2.10;;
13927;SDS011;7036;50.834;4.718;2022-08-19T12:16:38;2.83;;;2.60;;
13927;SDS011;7036;50.834;4.718;2022-08-19T12:19:05;3.10;;;2.77;;
13927;SDS011;7036;50.834;4.718;2022-08-19T12:21:33;3.17;;;2.53;;
13927;SDS011;7036;50.834;4.718;2022-08-19T12:23:59;3.00;;;2.73;;
13927;SDS011;7036;50.834;4.718;2022-08-19T12:26:27;6.00;;;3.33;;
13927;SDS011;7036;50.834;4.718;2022-08-19T12:28:53;4.63;;;2.87;;
13927;SDS011;7036;50.834;4.718;2022-08-19T12:31:20;7.00;;;2.80;;
13927;SDS011;7036;50.834;4.718;2022-08-19T12:33:46;3.20;;;2.67;;
13927;SDS011;7036;50.834;4.718;2022-08-19T12:36:14;3.03;;;2.67;;
13927;SDS011;7036;50.834;4.718;2022-08-19T12:38:41;6.27;;;3.00;;
13927;SDS011;7036;50.834;4.718;2022-08-19T12:41:09;2.90;;;2.60;;
13927;SDS011;7036;50.834;4.718;2022-08-19T12:43:34;3.30;;;2.57;;
13927;SDS011;7036;50.834;4.718;2022-08-19T12:46:02;3.97;;;2.73;;
13927;SDS011;7036;50.834;4.718;2022-08-19T12:48:28;5.00;;;3.03;;
13927;SDS011;7036;50.834;4.718;2022-08-19T12:50:55;4.53;;;3.00;;
13927;SDS011;7036;50.834;4.718;2022-08-19T12:53:22;3.43;;;3.13;;
13927;SDS011;7036;50.834;4.718;2022-08-19T12:55:54;3.13;;;2.70;;
13927;SDS011;7036;50.834;4.718;2022-08-19T12:58:16;2.87;;;2.67;;
13927;SDS011;7036;50.834;4.718;2022-08-19T13:00:43;4.30;;;2.90;;
13927;SDS011;7036;50.834;4.718;2022-08-19T13:03:09;3.83;;;3.20;;
13927;SDS011;7036;50.834;4.718;2022-08-19T13:05:36;4.37;;;3.43;;
13927;SDS011;7036;50.834;4.718;2022-08-19T13:08:03;7.70;;;3.40;;
13927;SDS011;7036;50.834;4.718;2022-08-19T13:10:32;6.83;;;3.27;;
13927;SDS011;7036;50.834;4.718;2022-08-19T13:12:57;3.37;;;3.03;;
13927;SDS011;7036;50.834;4.718;2022-08-19T13:15:24;5.07;;;3.20;;
13927;SDS011;7036;50.834;4.718;2022-08-19T13:17:52;5.20;;;3.40;;
13927;SDS011;7036;50.834;4.718;2022-08-19T13:20:19;3.07;;;2.83;;
13927;SDS011;7036;50.834;4.718;2022-08-19T13:22:46;3.10;;;2.80;;
13927;SDS011;7036;50.834;4.718;2022-08-19T13:25:12;4.30;;;3.00;;
13927;SDS011;7036;50.834;4.718;2022-08-19T13:27:40;4.33;;;3.20;;
13927;SDS011;7036;50.834;4.718;2022-08-19T13:30:08;7.60;;;3.70;;
13927;SDS011;7036;50.834;4.718;2022-08-19T13:32:52;5.07;;;3.30;;
13927;SDS011;7036;50.834;4.718;2022-08-19T13:35:39;11.07;;;4.00;;
13927;SDS011;7036;50.834;4.718;2022-08-19T13:38:05;4.83;;;3.23;;
13927;SDS011;7036;50.834;4.718;2022-08-19T13:40:32;6.90;;;3.67;;
13927;SDS011;7036;50.834;4.718;2022-08-19T13:43:01;8.23;;;3.30;;
13927;SDS011;7036;50.834;4.718;2022-08-19T13:45:28;9.23;;;3.83;;
13927;SDS011;7036;50.834;4.718;2022-08-19T13:47:56;5.97;;;3.43;;
13927;SDS011;7036;50.834;4.718;2022-08-19T13:50:24;7.33;;;3.00;;
13927;SDS011;7036;50.834;4.718;2022-08-19T13:52:51;6.70;;;3.67;;
13927;SDS011;7036;50.834;4.718;2022-08-19T13:55:17;6.00;;;3.13;;
13927;SDS011;7036;50.834;4.718;2022-08-19T13:57:44;7.33;;;3.43;;
13927;SDS011;7036;50.834;4.718;2022-08-19T14:00:17;4.60;;;3.37;;
13927;SDS011;7036;50.834;4.718;2022-08-19T14:02:46;9.73;;;3.43;;
13927;SDS011;7036;50.834;4.718;2022-08-19T14:05:15;6.53;;;2.40;;
13927;SDS011;7036;50.834;4.718;2022-08-19T14:07:43;8.37;;;3.23;;
13927;SDS011;7036;50.834;4.718;2022-08-19T14:10:12;8.13;;;3.07;;
13927;SDS011;7036;50.834;4.718;2022-08-19T14:12:37;5.13;;;3.00;;
13927;SDS011;7036;50.834;4.718;2022-08-19T14:15:05;12.60;;;2.93;;
13927;SDS011;7036;50.834;4.718;2022-08-19T14:17:33;5.97;;;2.53;;
13927;SDS011;7036;50.834;4.718;2022-08-19T14:20:00;7.30;;;2.53;;
13927;SDS011;7036;50.834;4.718;2022-08-19T14:22:31;11.70;;;2.20;;
13927;SDS011;7036;50.834;4.718;2022-08-19T14:24:58;11.70;;;2.80;;
13927;SDS011;7036;50.834;4.718;2022-08-19T14:27:25;9.53;;;2.70;;
13927;SDS011;7036;50.834;4.718;2022-08-19T14:29:53;4.37;;;2.40;;
13927;SDS011;7036;50.834;4.718;2022-08-19T14:32:21;3.83;;;2.10;;
13927;SDS011;7036;50.834;4.718;2022-08-19T14:37:18;4.27;;;1.97;;
13927;SDS011;7036;50.834;4.718;2022-08-19T14:39:45;12.13;;;2.93;;
13927;SDS011;7036;50.834;4.718;2022-08-19T14:42:12;6.27;;;2.87;;
13927;SDS011;7036;50.834;4.718;2022-08-19T14:44:39;13.87;;;2.63;;
13927;SDS011;7036;50.834;4.718;2022-08-19T14:47:06;9.37;;;2.57;;
13927;SDS011;7036;50.834;4.718;2022-08-19T14:49:33;12.50;;;2.87;;
13927;SDS011;7036;50.834;4.718;2022-08-19T14:52:00;7.40;;;2.90;;
13927;SDS011;7036;50.834;4.718;2022-08-19T14:54:26;14.53;;;2.63;;
13927;SDS011;7036;50.834;4.718;2022-08-19T14:56:53;16.87;;;3.47;;
13927;SDS011;7036;50.834;4.718;2022-08-19T14:59:20;9.83;;;2.70;;
13927;SDS011;7036;50.834;4.718;2022-08-19T15:01:47;13.70;;;3.37;;
13927;SDS011;7036;50.834;4.718;2022-08-19T15:04:14;11.40;;;2.73;;
13927;SDS011;7036;50.834;4.718;2022-08-19T15:06:41;9.10;;;2.20;;
13927;SDS011;7036;50.834;4.718;2022-08-19T15:09:08;10.63;;;2.63;;
13927;SDS011;7036;50.834;4.718;2022-08-19T15:11:35;8.13;;;2.10;;